createdAt,value
2023-01-10T00:01:56.695Z,93902.88
2023-01-10T00:04:23.691Z,93906.75
2023-01-10T00:06:50.365Z,93902.16
2023-01-10T00:09:16.879Z,93886.69
2023-01-10T00:12:01.921Z,93895.94
2023-01-10T00:14:29.334Z,93907.53
2023-01-10T00:16:57.359Z,93912.91
2023-01-10T00:19:25.461Z,93913.72
2023-01-10T00:21:52.655Z,93895.97
2023-01-10T00:24:19.143Z,93900.56
2023-01-10T00:26:52.855Z,93911.41
2023-01-10T00:29:20.980Z,93917.16
2023-01-10T00:31:48.041Z,93921.44
2023-01-10T00:34:14.826Z,93912.25
2023-01-10T00:36:42.153Z,93898.34
2023-01-10T00:39:11.055Z,93896.13
2023-01-10T00:41:56.339Z,93913.81
2023-01-10T00:44:22.930Z,93908.53
2023-01-10T00:46:49.757Z,93912.34
2023-01-10T00:49:16.411Z,93905.06
2023-01-10T00:51:43.291Z,93890.78
2023-01-10T00:54:10.183Z,93899.34
2023-01-10T00:56:36.728Z,93910.13
2023-01-10T00:59:06.085Z,93909.38
2023-01-10T01:01:32.875Z,93909.38
2023-01-10T01:04:01.793Z,93887.84
2023-01-10T01:06:28.331Z,93895.16
2023-01-10T01:08:54.812Z,93906.31
2023-01-10T01:11:21.266Z,93914.75
2023-01-10T01:13:47.788Z,93916.31
2023-01-10T01:16:14.482Z,93910.16
2023-01-10T01:18:44.539Z,93892.47
2023-01-10T01:21:11.039Z,93902.91
2023-01-10T01:23:37.698Z,93913.31
2023-01-10T01:26:06.712Z,93914.09
2023-01-10T01:28:33.256Z,93924.78
2023-01-10T01:31:01.975Z,93908.63
2023-01-10T01:33:28.552Z,93916.69
2023-01-10T01:35:54.996Z,93929.03
2023-01-10T01:38:21.460Z,93940.91
2023-01-10T01:40:47.974Z,93945.53
2023-01-10T01:43:23.305Z,93931.34
2023-01-10T01:45:49.885Z,93916.69
2023-01-10T01:48:19.113Z,93937.81
2023-01-10T01:50:55.151Z,93942.41
2023-01-10T01:53:31.197Z,93950.09
2023-01-10T01:56:01.178Z,93944.72
2023-01-10T01:58:37.726Z,93929.00
2023-01-10T02:01:06.119Z,93932.44
2023-01-10T02:03:33.334Z,93943.19
2023-01-10T02:06:02.078Z,93940.56
2023-01-10T02:08:28.784Z,93940.19
2023-01-10T02:11:08.874Z,93919.44
2023-01-10T02:13:38.479Z,93927.09
2023-01-10T02:16:05.147Z,93937.84
2023-01-10T02:18:31.721Z,93934.78
2023-01-10T02:21:14.305Z,93933.66
2023-01-10T02:23:59.672Z,93939.38
2023-01-10T02:26:45.082Z,93928.63
2023-01-10T02:29:15.018Z,93929.38
2023-01-10T02:31:54.438Z,93938.19
2023-01-10T02:34:39.712Z,93943.97
2023-01-10T02:37:12.366Z,93943.25
2023-01-10T02:39:52.137Z,93940.88
2023-01-10T02:42:32.338Z,93941.63
2023-01-10T02:45:04.455Z,93945.84
2023-01-10T02:47:37.897Z,93947.78
2023-01-10T02:50:19.716Z,93945.53
2023-01-10T02:52:46.167Z,93943.94
2023-01-10T02:55:12.649Z,93949.28
2023-01-10T02:58:03.084Z,93945.09
2023-01-10T03:00:46.147Z,93947.78
2023-01-10T03:03:25.520Z,93953.19
2023-01-10T03:05:55.911Z,93953.19
2023-01-10T03:08:37.662Z,93938.56
2023-01-10T03:11:07.983Z,93940.84
2023-01-10T03:13:40.672Z,93951.59
2023-01-10T03:16:09.849Z,93952.38
2023-01-10T03:18:57.430Z,93945.47
2023-01-10T03:21:25.985Z,93945.44
2023-01-10T03:23:54.773Z,93943.09
2023-01-10T03:26:26.230Z,93946.97
2023-01-10T03:28:57.696Z,93956.19
2023-01-10T03:31:28.993Z,93963.06
2023-01-10T03:33:55.688Z,93970.72
2023-01-10T03:36:34.411Z,93975.28
2023-01-10T03:39:06.963Z,93969.13
2023-01-10T03:41:52.229Z,93978.34
2023-01-10T03:44:44.954Z,93973.00
2023-01-10T03:47:26.022Z,93982.56
2023-01-10T03:49:59.691Z,93963.03
2023-01-10T03:52:28.755Z,93962.19
2023-01-10T03:54:57.520Z,93974.13
2023-01-10T03:57:24.387Z,93992.88
2023-01-10T03:59:53.045Z,93993.66
2023-01-10T04:02:22.157Z,93997.47
2023-01-10T04:04:48.628Z,93991.31
2023-01-10T04:07:15.043Z,93978.66
2023-01-10T04:09:41.520Z,94002.03
2023-01-10T04:12:08.031Z,94003.59
2023-01-10T04:14:34.541Z,94005.88
2023-01-10T04:17:01.067Z,93999.75
2023-01-10T04:19:28.349Z,93994.00
2023-01-10T04:21:55.617Z,93985.88
2023-01-10T04:24:24.192Z,93994.38
2023-01-10T04:26:50.983Z,94003.56
2023-01-10T04:29:17.440Z,94011.22
2023-01-10T04:31:46.193Z,94016.19
2023-01-10T04:34:12.744Z,94025.75
2023-01-10T04:36:39.212Z,94017.25
2023-01-10T04:39:05.763Z,94013.06
2023-01-10T04:41:32.237Z,94019.63
2023-01-10T04:43:58.801Z,94030.31
2023-01-10T04:46:25.323Z,94021.91
2023-01-10T04:48:54.708Z,94034.16
2023-01-10T04:51:23.096Z,94025.28
2023-01-10T04:53:49.709Z,94034.47
2023-01-10T04:56:18.459Z,94038.69
2023-01-10T04:58:44.948Z,94053.25
2023-01-10T05:01:13.615Z,94060.91
2023-01-10T05:03:41.001Z,94066.25
2023-01-10T05:06:07.560Z,94058.59
2023-01-10T05:08:34.042Z,94058.56
2023-01-10T05:11:00.685Z,94057.03
2023-01-10T05:13:28.096Z,94073.91
2023-01-10T05:15:58.209Z,94076.97
2023-01-10T05:18:28.905Z,94080.78
2023-01-10T05:21:22.373Z,94092.25
2023-01-10T05:23:50.992Z,94093.75
2023-01-10T05:26:19.182Z,94091.44
2023-01-10T05:28:47.617Z,94103.72
2023-01-10T05:31:17.714Z,94114.06
2023-01-10T05:33:45.879Z,94106.78
2023-01-10T05:36:12.886Z,94102.91
2023-01-10T05:38:39.451Z,94104.81
2023-01-10T05:41:05.963Z,94120.50
2023-01-10T05:43:32.510Z,94122.81
2023-01-10T05:45:59.073Z,94128.16
2023-01-10T05:48:25.621Z,94135.81
2023-01-10T05:50:52.350Z,94131.97
2023-01-10T05:53:19.550Z,94125.47
2023-01-10T05:56:05.316Z,94136.19
2023-01-10T05:58:31.888Z,94145.72
2023-01-10T06:00:58.489Z,94139.22
2023-01-10T06:03:28.357Z,94159.50
2023-01-10T06:05:55.333Z,94153.38
2023-01-10T06:08:22.286Z,94158.72
2023-01-10T06:10:48.814Z,94168.69
2023-01-10T06:13:15.294Z,94177.84
2023-01-10T06:15:41.822Z,94176.72
2023-01-10T06:18:11.168Z,94174.03
2023-01-10T06:20:42.078Z,94173.22
2023-01-10T06:23:08.614Z,94177.44
2023-01-10T06:25:37.068Z,94187.75
2023-01-10T06:28:06.163Z,94195.41
2023-01-10T06:30:32.687Z,94203.44
2023-01-10T06:33:08.074Z,94213.00
2023-01-10T06:35:34.746Z,94222.56
2023-01-10T06:38:01.627Z,94229.44
2023-01-10T06:40:28.550Z,94232.50
2023-01-10T06:42:55.030Z,94233.28
2023-01-10T06:45:21.570Z,94241.31
2023-01-10T06:47:48.126Z,94246.66
2023-01-10T06:50:14.666Z,94253.16
2023-01-10T06:52:42.043Z,94285.72
2023-01-10T06:55:08.673Z,94317.81
2023-01-10T06:57:38.711Z,94307.88
2023-01-10T07:00:08.586Z,94288.00
2023-01-10T07:02:35.098Z,94278.06
2023-01-10T07:05:01.766Z,94281.13
2023-01-10T07:07:28.418Z,94254.75
2023-01-10T07:09:54.993Z,94236.81
2023-01-10T07:12:21.547Z,94221.50
2023-01-10T07:14:48.037Z,94235.25
2023-01-10T07:17:18.302Z,94236.03
2023-01-10T07:19:44.956Z,94228.00
2023-01-10T07:22:11.837Z,94223.78
2023-01-10T07:24:38.281Z,94206.97
2023-01-10T07:27:04.768Z,94184.47
2023-01-10T07:29:31.263Z,94187.88
2023-01-10T07:31:57.795Z,94180.63
2023-01-10T07:34:24.232Z,94175.66
2023-01-10T07:36:52.652Z,94171.84
2023-01-10T07:39:19.239Z,94167.25
2023-01-10T07:41:47.417Z,94147.38
2023-01-10T07:44:14.795Z,94126.00
2023-01-10T07:46:41.283Z,94110.66
2023-01-10T07:49:07.770Z,94111.09
2023-01-10T07:51:34.409Z,94108.41
2023-01-10T07:54:01.411Z,94099.63
2023-01-10T07:56:27.960Z,94095.81
2023-01-10T07:58:54.462Z,94083.97
2023-01-10T08:01:23.391Z,94077.09
2023-01-10T08:03:49.965Z,94083.19
2023-01-10T08:06:16.877Z,94081.66
2023-01-10T08:08:43.561Z,94080.91
2023-01-10T08:11:10.001Z,94076.72
2023-01-10T08:13:36.712Z,94057.22
2023-01-10T08:16:07.080Z,94056.06
2023-01-10T08:18:34.188Z,94055.69
2023-01-10T08:21:01.709Z,94051.88
2023-01-10T08:23:28.272Z,94048.81
2023-01-10T08:25:55.221Z,94043.84
2023-01-10T08:28:21.798Z,94047.28
2023-01-10T08:30:50.408Z,94035.81
2023-01-10T08:33:19.103Z,94032.00
2023-01-10T08:35:45.741Z,94037.34
2023-01-10T08:38:12.267Z,94027.38
2023-01-10T08:40:38.857Z,94015.47
2023-01-10T08:43:08.118Z,94008.94
2023-01-10T08:45:34.960Z,94021.63
2023-01-10T08:48:02.957Z,94025.06
2023-01-10T08:50:30.050Z,94028.13
2023-01-10T08:53:00.022Z,94026.59
2023-01-10T08:55:27.581Z,94025.44
2023-01-10T08:57:54.397Z,94018.19
2023-01-10T09:00:21.379Z,94018.94
2023-01-10T09:02:47.893Z,94019.63
2023-01-10T09:05:27.131Z,94020.38
2023-01-10T09:07:58.213Z,94027.28
2023-01-10T09:10:24.880Z,94031.13
2023-01-10T09:12:57.484Z,94039.13
2023-01-10T09:15:28.913Z,94038.00
2023-01-10T09:18:00.890Z,94047.94
2023-01-10T09:20:29.006Z,94043.31
2023-01-10T09:22:56.890Z,94038.69
2023-01-10T09:25:24.108Z,94042.50
2023-01-10T09:27:58.272Z,94044.78
2023-01-10T09:30:24.873Z,94065.81
2023-01-10T09:32:53.907Z,94068.50
2023-01-10T09:35:20.527Z,94071.53
2023-01-10T09:37:47.162Z,94066.94
2023-01-10T09:40:15.957Z,94076.88
2023-01-10T09:42:49.801Z,94078.03
2023-01-10T09:45:37.934Z,94084.50
2023-01-10T09:48:15.652Z,94091.38
2023-01-10T09:50:54.876Z,94091.34
2023-01-10T09:53:27.765Z,94096.31
2023-01-10T09:55:58.143Z,94105.09
2023-01-10T09:58:31.574Z,94117.00
2023-01-10T10:01:11.811Z,94131.91
2023-01-10T10:03:58.877Z,94116.56
2023-01-10T10:06:25.376Z,94141.91
2023-01-10T10:08:52.548Z,94177.13
2023-01-10T10:11:39.312Z,94161.84
2023-01-10T10:14:08.909Z,94142.69
2023-01-10T10:16:54.038Z,94133.44
2023-01-10T10:19:22.109Z,94164.13
2023-01-10T10:21:51.318Z,94170.63
2023-01-10T10:24:38.462Z,94171.81
2023-01-10T10:27:10.855Z,94164.16
2023-01-10T10:29:48.251Z,94133.50
2023-01-10T10:32:37.492Z,94142.72
2023-01-10T10:35:08.956Z,94147.34
2023-01-10T10:37:41.127Z,94144.31
2023-01-10T10:40:14.065Z,94138.94
2023-01-10T10:42:47.299Z,94118.28
2023-01-10T10:45:19.905Z,94091.44
2023-01-10T10:47:50.999Z,94087.28
2023-01-10T10:50:34.947Z,94087.69
2023-01-10T10:53:05.476Z,94080.81
2023-01-10T10:55:35.211Z,94080.44
2023-01-10T10:58:03.658Z,94063.19
2023-01-10T11:00:30.215Z,94040.16
2023-01-10T11:03:11.779Z,94051.69
2023-01-10T11:05:43.058Z,94054.03
2023-01-10T11:08:15.936Z,94044.84
2023-01-10T11:11:02.612Z,94037.97
2023-01-10T11:13:35.364Z,94003.44
2023-01-10T11:16:04.458Z,94008.03
2023-01-10T11:18:32.818Z,94008.06
2023-01-10T11:21:01.672Z,94020.38
2023-01-10T11:23:32.525Z,94012.69
2023-01-10T11:26:00.861Z,93999.66
2023-01-10T11:28:30.158Z,93982.72
2023-01-10T11:30:56.869Z,93998.81
2023-01-10T11:33:26.994Z,94009.56
2023-01-10T11:36:01.013Z,93995.81
2023-01-10T11:38:30.740Z,93998.88
2023-01-10T11:41:06.891Z,93975.41
2023-01-10T11:43:40.505Z,93973.47
2023-01-10T11:46:15.772Z,93987.72
2023-01-10T11:49:06.781Z,94000.41
2023-01-10T11:51:38.875Z,94012.63
2023-01-10T11:54:07.156Z,93993.41
2023-01-10T11:56:37.141Z,93991.03
2023-01-10T11:59:17.463Z,94008.75
2023-01-10T12:01:47.634Z,94024.50
2023-01-10T12:04:17.879Z,94022.22
2023-01-10T12:06:51.038Z,94012.94
2023-01-10T12:09:34.760Z,93991.78
2023-01-10T12:12:21.595Z,94008.72
2023-01-10T12:14:49.375Z,94017.94
2023-01-10T12:17:22.405Z,94037.09
2023-01-10T12:19:53.281Z,94027.84
2023-01-10T12:22:22.649Z,94019.69
2023-01-10T12:24:50.733Z,94042.00
2023-01-10T12:27:18.136Z,94058.50
2023-01-10T12:29:47.575Z,94060.06
2023-01-10T12:32:21.707Z,94049.69
2023-01-10T12:34:52.922Z,94046.19
2023-01-10T12:37:22.617Z,94056.94
2023-01-10T12:39:55.609Z,94071.16
2023-01-10T12:42:47.177Z,94077.28
2023-01-10T12:45:19.861Z,94084.53
2023-01-10T12:47:59.176Z,94080.63
2023-01-10T12:50:29.079Z,94079.88
2023-01-10T12:53:18.579Z,94106.72
2023-01-10T12:55:45.427Z,94105.97
2023-01-10T12:58:23.590Z,94102.16
2023-01-10T13:00:52.956Z,94099.78
2023-01-10T13:03:25.181Z,94102.84
2023-01-10T13:05:53.202Z,94107.47
2023-01-10T13:08:23.064Z,94122.00
2023-01-10T13:10:51.587Z,94128.53
2023-01-10T13:13:26.619Z,94118.94
2023-01-10T13:15:55.805Z,94112.75
2023-01-10T13:18:27.433Z,94115.84
2023-01-10T13:21:15.533Z,94142.28
2023-01-10T13:23:50.093Z,94144.59
2023-01-10T13:26:16.660Z,94141.13
2023-01-10T13:29:01.763Z,94141.06
2023-01-10T13:31:32.846Z,94154.84
2023-01-10T13:34:01.142Z,94157.56
2023-01-10T13:36:35.635Z,94170.22
2023-01-10T13:39:04.464Z,94168.69
2023-01-10T13:42:12.012Z,94170.53
2023-01-10T13:44:57.136Z,94154.06
2023-01-10T13:47:48.376Z,94172.09
2023-01-10T13:50:24.116Z,94185.13
2023-01-10T13:52:54.074Z,94170.59
2023-01-10T13:55:23.297Z,94178.63
2023-01-10T13:57:51.725Z,94164.03
2023-01-10T14:00:40.676Z,94175.50
2023-01-10T14:03:09.186Z,94180.88
2023-01-10T14:05:35.801Z,94182.78
2023-01-10T14:08:02.579Z,94182.03
2023-01-10T14:10:30.468Z,94174.72
2023-01-10T14:13:09.299Z,94170.06
2023-01-10T14:15:41.943Z,94181.97
2023-01-10T14:18:20.817Z,94181.25
2023-01-10T14:20:58.864Z,94193.09
2023-01-10T14:23:28.522Z,94200.75
2023-01-10T14:25:56.653Z,94188.47
2023-01-10T14:28:34.108Z,94194.63
2023-01-10T14:31:08.911Z,94203.81
2023-01-10T14:33:36.460Z,94203.44
2023-01-10T14:36:23.257Z,94216.06
2023-01-10T14:38:50.760Z,94195.78
2023-01-10T14:41:35.881Z,94203.00
2023-01-10T14:44:12.033Z,94222.94
2023-01-10T14:46:47.952Z,94218.34
2023-01-10T14:49:35.362Z,94223.72
2023-01-10T14:52:12.347Z,94212.94
2023-01-10T14:54:38.939Z,94213.72
2023-01-10T14:57:15.836Z,94223.69
2023-01-10T14:59:42.321Z,94233.66
2023-01-10T15:02:36.461Z,94239.00
2023-01-10T15:05:17.816Z,94238.25
2023-01-10T15:07:44.403Z,94240.50
2023-01-10T15:10:20.440Z,94236.72
2023-01-10T15:12:47.324Z,94245.50
2023-01-10T15:15:16.771Z,94246.66
2023-01-10T15:17:44.134Z,94246.66
2023-01-10T15:20:16.021Z,94245.09
2023-01-10T15:22:47.064Z,94248.19
2023-01-10T15:25:26.950Z,94257.00
2023-01-10T15:27:56.252Z,94268.84
2023-01-10T15:30:27.143Z,94273.44
2023-01-10T15:32:55.338Z,94278.03
2023-01-10T15:35:35.313Z,94274.97
2023-01-10T15:38:07.498Z,94284.91
2023-01-10T15:40:39.705Z,94285.69
2023-01-10T15:43:18.227Z,94301.75
2023-01-10T15:45:45.854Z,94302.50
2023-01-10T15:48:31.054Z,94309.41
2023-01-10T15:51:22.620Z,94300.22
2023-01-10T15:53:55.452Z,94303.28
2023-01-10T15:56:27.070Z,94312.84
2023-01-10T15:58:53.987Z,94338.47
2023-01-10T16:01:20.783Z,94341.19
2023-01-10T16:03:57.854Z,94331.59
2023-01-10T16:06:30.565Z,94338.47
2023-01-10T16:09:00.781Z,94353.78
2023-01-10T16:11:48.885Z,94362.19
2023-01-10T16:14:15.488Z,94371.38
2023-01-10T16:16:42.055Z,94375.56
2023-01-10T16:19:10.097Z,94373.31
2023-01-10T16:21:40.244Z,94372.13
2023-01-10T16:24:08.946Z,94370.63
2023-01-10T16:26:37.196Z,94395.84
2023-01-10T16:29:03.740Z,94401.59
2023-01-10T16:31:30.315Z,94410.41
2023-01-10T16:33:56.899Z,94416.50
2023-01-10T16:36:23.539Z,94414.97
2023-01-10T16:38:50.128Z,94422.25
2023-01-10T16:41:35.373Z,94402.75
2023-01-10T16:44:01.932Z,94417.66
2023-01-10T16:46:28.762Z,94411.94
2023-01-10T16:48:55.295Z,94415.75
2023-01-10T16:51:26.217Z,94406.19
2023-01-10T16:53:53.399Z,94410.41
2023-01-10T16:56:21.531Z,94406.19
2023-01-10T16:58:48.794Z,94395.88
2023-01-10T17:01:17.425Z,94387.81
2023-01-10T17:03:44.343Z,94395.13
2023-01-10T17:06:12.121Z,94398.16
2023-01-10T17:08:38.762Z,94404.28
2023-01-10T17:11:06.880Z,94417.69
2023-01-10T17:13:34.744Z,94406.56
2023-01-10T17:16:01.392Z,94393.56
2023-01-10T17:18:29.358Z,94395.88
2023-01-10T17:20:59.889Z,94408.50
2023-01-10T17:23:27.088Z,94411.94
2023-01-10T17:26:00.767Z,94410.78
2023-01-10T17:28:28.872Z,94418.81
2023-01-10T17:30:55.828Z,94423.41
2023-01-10T17:33:22.621Z,94411.19
2023-01-10T17:35:49.107Z,94420.38
2023-01-10T17:38:16.747Z,94416.53
2023-01-10T17:40:44.369Z,94421.50
2023-01-10T17:43:11.689Z,94421.13
2023-01-10T17:45:44.018Z,94422.66
2023-01-10T17:48:13.027Z,94414.22
2023-01-10T17:50:39.680Z,94407.31
2023-01-10T17:53:06.200Z,94401.59
2023-01-10T17:55:32.931Z,94405.41
2023-01-10T17:57:59.456Z,94407.31
2023-01-10T18:00:27.081Z,94412.69
2023-01-10T18:02:53.707Z,94405.03
2023-01-10T18:05:20.395Z,94401.22
2023-01-10T18:07:48.876Z,94398.13
2023-01-10T18:10:15.385Z,94398.13
2023-01-10T18:12:43.691Z,94400.41
2023-01-10T18:15:10.402Z,94403.09
2023-01-10T18:17:39.790Z,94418.81
2023-01-10T18:20:06.873Z,94422.66
2023-01-10T18:22:51.925Z,94423.75
2023-01-10T18:25:19.430Z,94415.72
2023-01-10T18:27:50.566Z,94428.75
2023-01-10T18:30:19.677Z,94438.34
2023-01-10T18:32:46.187Z,94428.75
2023-01-10T18:35:12.891Z,94425.31
2023-01-10T18:37:39.480Z,94435.63
2023-01-10T18:40:06.367Z,94428.75
2023-01-10T18:42:34.764Z,94431.78
2023-01-10T18:45:01.513Z,94455.16
2023-01-10T18:47:28.143Z,94483.50
2023-01-10T18:49:54.588Z,94479.28
2023-01-10T18:52:21.167Z,94468.53
2023-01-10T18:54:52.135Z,94432.59
2023-01-10T18:57:19.166Z,94416.13
2023-01-10T18:59:45.846Z,94410.41
2023-01-10T19:02:15.837Z,94375.19
2023-01-10T19:04:42.439Z,94354.53
2023-01-10T19:07:08.999Z,94331.16
2023-01-10T19:09:35.512Z,94313.53
2023-01-10T19:12:01.996Z,94331.56
2023-01-10T19:14:28.562Z,94337.72
2023-01-10T19:16:55.003Z,94327.78
2023-01-10T19:19:21.508Z,94315.91
2023-01-10T19:21:48.671Z,94286.03
2023-01-10T19:24:20.239Z,94292.19
2023-01-10T19:26:46.745Z,94302.53
2023-01-10T19:29:13.223Z,94307.13
2023-01-10T19:34:28.546Z,94275.00
2023-01-10T19:37:00.113Z,94255.06
2023-01-10T19:39:26.701Z,94263.53
2023-01-10T19:41:53.231Z,94257.78
2023-01-10T19:44:19.681Z,94252.06
2023-01-10T19:46:47.572Z,94241.72
2023-01-10T19:49:17.213Z,94223.72
2023-01-10T19:51:45.634Z,94222.56
2023-01-10T19:54:12.209Z,94212.25
2023-01-10T19:56:38.664Z,94205.38
2023-01-10T19:59:05.221Z,94195.44
2023-01-10T20:01:31.987Z,94183.22
2023-01-10T20:04:01.094Z,94160.56
2023-01-10T20:06:28.660Z,94163.28
2023-01-10T20:08:55.277Z,94160.22
2023-01-10T20:11:22.858Z,94149.13
2023-01-10T20:13:51.401Z,94132.69
2023-01-10T20:16:19.160Z,94127.31
2023-01-10T20:18:46.912Z,94110.41
2023-01-10T20:21:15.649Z,94107.78
2023-01-10T20:23:43.067Z,94114.31
2023-01-10T20:26:12.287Z,94107.44
2023-01-10T20:28:39.395Z,94101.31
2023-01-10T20:31:07.318Z,94072.97
2023-01-10T20:33:34.626Z,94062.19
2023-01-10T20:36:03.786Z,94065.31
2023-01-10T20:38:30.939Z,94058.44
2023-01-10T20:41:01.009Z,94053.09
2023-01-10T20:43:27.992Z,94049.25
2023-01-10T20:45:54.913Z,94050.69
2023-01-10T20:48:23.763Z,94060.22
2023-01-10T20:50:50.301Z,94069.09
2023-01-10T20:53:16.895Z,94075.25
2023-01-10T20:55:46.808Z,94080.22
2023-01-10T20:58:17.301Z,94062.94
2023-01-10T21:00:43.761Z,94035.28
2023-01-10T21:03:10.394Z,94043.03
2023-01-10T21:05:37.020Z,94057.19
2023-01-10T21:08:03.513Z,94047.63
2023-01-10T21:10:32.161Z,94052.22
2023-01-10T21:12:58.658Z,94056.72
2023-01-10T21:15:25.189Z,94054.78
2023-01-10T21:17:51.861Z,94063.66
2023-01-10T21:20:19.739Z,94070.56
2023-01-10T21:22:46.806Z,94062.91
2023-01-10T21:25:13.518Z,94068.28
2023-01-10T21:27:40.042Z,94047.13
2023-01-10T21:30:06.854Z,94044.06
2023-01-10T21:32:36.145Z,94056.00
2023-01-10T21:35:02.668Z,94052.97
2023-01-10T21:37:31.252Z,94061.38
2023-01-10T21:39:59.643Z,94057.53
2023-01-10T21:42:35.135Z,94043.66
2023-01-10T21:45:02.071Z,94052.88
2023-01-10T21:47:28.613Z,94059.84
2023-01-10T21:49:55.244Z,94062.53
2023-01-10T21:52:21.696Z,94063.69
2023-01-10T21:54:48.172Z,94056.72
2023-01-10T21:57:17.010Z,94042.09
2023-01-10T21:59:43.473Z,94046.78
2023-01-10T22:02:15.218Z,94065.97
2023-01-10T22:04:45.548Z,94075.16
2023-01-10T22:07:12.043Z,94082.81
2023-01-10T22:09:38.603Z,94062.47
2023-01-10T22:12:05.159Z,94045.94
2023-01-10T22:14:31.817Z,94045.59
2023-01-10T22:16:58.341Z,94058.63
2023-01-10T22:19:26.381Z,94056.00
2023-01-10T22:21:52.895Z,94058.69
2023-01-10T22:24:19.377Z,94057.44
2023-01-10T22:26:45.990Z,94052.81
2023-01-10T22:29:12.716Z,94055.91
2023-01-10T22:31:41.289Z,94048.25
2023-01-10T22:34:08.160Z,94045.22
2023-01-10T22:36:34.699Z,94045.94
2023-01-10T22:39:01.189Z,94030.16
2023-01-10T22:41:30.788Z,94027.44
2023-01-10T22:43:59.622Z,94032.47
2023-01-10T22:46:26.361Z,94037.44
2023-01-10T22:48:53.140Z,94032.09
2023-01-10T22:51:20.579Z,94044.34
2023-01-10T22:53:54.872Z,94031.25
2023-01-10T22:56:25.748Z,94022.72
2023-01-10T22:58:52.795Z,94015.16
2023-01-10T23:01:20.524Z,94030.53
2023-01-10T23:03:49.725Z,94029.75
2023-01-10T23:06:16.679Z,94027.44
2023-01-10T23:08:43.187Z,94014.31
2023-01-10T23:11:10.416Z,94012.72
2023-01-10T23:13:36.963Z,94016.56
2023-01-10T23:16:05.735Z,94021.19
2023-01-10T23:18:35.017Z,94015.13
2023-01-10T23:21:02.608Z,94012.78
2023-01-10T23:23:29.143Z,93998.19
2023-01-10T23:26:02.647Z,93994.28
2023-01-10T23:28:29.143Z,94000.47
2023-01-10T23:30:55.598Z,93994.34
2023-01-10T23:33:22.995Z,93992.81
2023-01-10T23:35:49.743Z,93991.66
2023-01-10T23:38:16.251Z,93972.00
2023-01-10T23:40:43.144Z,93953.53
2023-01-10T23:43:09.692Z,93961.28
2023-01-10T23:45:36.946Z,93962.44
2023-01-10T23:48:04.134Z,93942.94
2023-01-10T23:50:30.695Z,93939.88
2023-01-10T23:52:57.134Z,93942.09
2023-01-10T23:55:23.614Z,93932.03
2023-01-10T23:57:50.066Z,93929.03
